sensor_id;sensor_type;location;lat;lon;timestamp;P1;durP1;ratioP1;P2;durP2;ratioP2
15938;SDS011;8068;51.322;9.450;2022-10-31T00:02:25;6.13;;;5.53;;
15938;SDS011;8068;51.322;9.450;2022-10-31T00:04:51;6.90;;;4.90;;
15938;SDS011;8068;51.322;9.450;2022-10-31T00:07:17;10.93;;;5.90;;
15938;SDS011;8068;51.322;9.450;2022-10-31T00:09:43;11.63;;;6.00;;
15938;SDS011;8068;51.322;9.450;2022-10-31T00:12:09;9.83;;;6.00;;
15938;SDS011;8068;51.322;9.450;2022-10-31T00:14:35;10.70;;;6.27;;
15938;SDS011;8068;51.322;9.450;2022-10-31T00:17:01;8.17;;;6.17;;
15938;SDS011;8068;51.322;9.450;2022-10-31T00:19:27;7.30;;;6.00;;
15938;SDS011;8068;51.322;9.450;2022-10-31T00:21:53;7.27;;;5.60;;
15938;SDS011;8068;51.322;9.450;2022-10-31T00:24:19;10.60;;;6.40;;
15938;SDS011;8068;51.322;9.450;2022-10-31T00:26:45;16.10;;;7.13;;
15938;SDS011;8068;51.322;9.450;2022-10-31T00:29:12;10.37;;;6.47;;
15938;SDS011;8068;51.322;9.450;2022-10-31T00:31:38;11.03;;;6.50;;
15938;SDS011;8068;51.322;9.450;2022-10-31T00:34:04;12.50;;;5.90;;
15938;SDS011;8068;51.322;9.450;2022-10-31T00:36:30;8.90;;;6.00;;
15938;SDS011;8068;51.322;9.450;2022-10-31T00:38:57;10.43;;;6.43;;
15938;SDS011;8068;51.322;9.450;2022-10-31T00:41:24;7.37;;;6.27;;
15938;SDS011;8068;51.322;9.450;2022-10-31T00:43:50;11.57;;;6.50;;
15938;SDS011;8068;51.322;9.450;2022-10-31T00:46:16;8.73;;;5.87;;
15938;SDS011;8068;51.322;9.450;2022-10-31T00:48:42;7.97;;;6.13;;
15938;SDS011;8068;51.322;9.450;2022-10-31T00:51:08;11.50;;;6.20;;
15938;SDS011;8068;51.322;9.450;2022-10-31T00:53:35;8.80;;;5.67;;
15938;SDS011;8068;51.322;9.450;2022-10-31T00:56:01;12.43;;;6.13;;
15938;SDS011;8068;51.322;9.450;2022-10-31T00:58:27;9.17;;;6.17;;
15938;SDS011;8068;51.322;9.450;2022-10-31T01:00:53;10.10;;;5.67;;
15938;SDS011;8068;51.322;9.450;2022-10-31T01:03:23;11.87;;;6.10;;
15938;SDS011;8068;51.322;9.450;2022-10-31T01:06:07;9.87;;;6.47;;
15938;SDS011;8068;51.322;9.450;2022-10-31T01:08:34;12.67;;;6.00;;
15938;SDS011;8068;51.322;9.450;2022-10-31T01:11:02;9.23;;;6.30;;
15938;SDS011;8068;51.322;9.450;2022-10-31T01:13:28;11.27;;;6.60;;
15938;SDS011;8068;51.322;9.450;2022-10-31T01:15:55;9.63;;;6.80;;
15938;SDS011;8068;51.322;9.450;2022-10-31T01:18:22;11.20;;;5.83;;
15938;SDS011;8068;51.322;9.450;2022-10-31T01:20:56;10.67;;;6.73;;
15938;SDS011;8068;51.322;9.450;2022-10-31T01:23:24;9.00;;;6.13;;
15938;SDS011;8068;51.322;9.450;2022-10-31T01:25:58;8.30;;;6.50;;
15938;SDS011;8068;51.322;9.450;2022-10-31T01:28:28;11.00;;;5.90;;
15938;SDS011;8068;51.322;9.450;2022-10-31T01:30:54;13.10;;;6.03;;
15938;SDS011;8068;51.322;9.450;2022-10-31T01:33:20;11.10;;;6.53;;
15938;SDS011;8068;51.322;9.450;2022-10-31T01:35:46;7.73;;;5.97;;
15938;SDS011;8068;51.322;9.450;2022-10-31T01:38:12;13.60;;;5.90;;
15938;SDS011;8068;51.322;9.450;2022-10-31T01:40:38;8.00;;;5.90;;
15938;SDS011;8068;51.322;9.450;2022-10-31T01:43:04;6.80;;;5.73;;
15938;SDS011;8068;51.322;9.450;2022-10-31T01:45:30;9.93;;;6.20;;
15938;SDS011;8068;51.322;9.450;2022-10-31T01:47:56;16.17;;;7.20;;
15938;SDS011;8068;51.322;9.450;2022-10-31T01:52:56;9.43;;;6.20;;
15938;SDS011;8068;51.322;9.450;2022-10-31T01:55:25;10.20;;;6.07;;
15938;SDS011;8068;51.322;9.450;2022-10-31T01:57:57;6.90;;;5.50;;
15938;SDS011;8068;51.322;9.450;2022-10-31T02:00:26;9.43;;;5.70;;
15938;SDS011;8068;51.322;9.450;2022-10-31T02:02:52;6.13;;;5.53;;
15938;SDS011;8068;51.322;9.450;2022-10-31T02:05:19;7.63;;;5.70;;
15938;SDS011;8068;51.322;9.450;2022-10-31T02:10:37;12.30;;;5.97;;
15938;SDS011;8068;51.322;9.450;2022-10-31T02:13:04;5.93;;;5.33;;
15938;SDS011;8068;51.322;9.450;2022-10-31T02:15:31;10.97;;;6.00;;
15938;SDS011;8068;51.322;9.450;2022-10-31T02:17:58;11.63;;;6.17;;
15938;SDS011;8068;51.322;9.450;2022-10-31T02:20:25;6.83;;;6.13;;
15938;SDS011;8068;51.322;9.450;2022-10-31T02:31:42;13.73;;;5.00;;
15938;SDS011;8068;51.322;9.450;2022-10-31T02:34:22;8.60;;;5.70;;
15938;SDS011;8068;51.322;9.450;2022-10-31T02:39:45;12.97;;;6.27;;
15938;SDS011;8068;51.322;9.450;2022-10-31T02:42:22;8.93;;;4.57;;
15938;SDS011;8068;51.322;9.450;2022-10-31T02:45:04;7.17;;;5.33;;
15938;SDS011;8068;51.322;9.450;2022-10-31T02:47:36;6.10;;;5.50;;
15938;SDS011;8068;51.322;9.450;2022-10-31T02:50:04;12.53;;;6.53;;
15938;SDS011;8068;51.322;9.450;2022-10-31T02:52:33;6.20;;;5.60;;
15938;SDS011;8068;51.322;9.450;2022-10-31T02:58:05;10.00;;;5.70;;
15938;SDS011;8068;51.322;9.450;2022-10-31T03:00:38;11.20;;;6.17;;
15938;SDS011;8068;51.322;9.450;2022-10-31T03:05:58;17.10;;;5.67;;
15938;SDS011;8068;51.322;9.450;2022-10-31T03:11:08;19.00;;;5.70;;
15938;SDS011;8068;51.322;9.450;2022-10-31T03:13:48;5.50;;;4.90;;
15938;SDS011;8068;51.322;9.450;2022-10-31T03:21:32;21.13;;;6.30;;
15938;SDS011;8068;51.322;9.450;2022-10-31T03:24:01;8.80;;;5.43;;
15938;SDS011;8068;51.322;9.450;2022-10-31T03:26:29;17.40;;;5.93;;
15938;SDS011;8068;51.322;9.450;2022-10-31T03:29:03;6.33;;;5.73;;
15938;SDS011;8068;51.322;9.450;2022-10-31T03:31:53;16.53;;;5.87;;
15938;SDS011;8068;51.322;9.450;2022-10-31T03:34:19;18.20;;;5.73;;
15938;SDS011;8068;51.322;9.450;2022-10-31T03:36:46;12.50;;;5.93;;
15938;SDS011;8068;51.322;9.450;2022-10-31T03:39:16;13.10;;;5.93;;
15938;SDS011;8068;51.322;9.450;2022-10-31T03:41:45;7.10;;;4.93;;
15938;SDS011;8068;51.322;9.450;2022-10-31T03:44:16;12.07;;;4.63;;
15938;SDS011;8068;51.322;9.450;2022-10-31T03:46:56;8.17;;;5.27;;
15938;SDS011;8068;51.322;9.450;2022-10-31T03:49:22;15.80;;;5.20;;
15938;SDS011;8068;51.322;9.450;2022-10-31T03:54:25;7.53;;;5.47;;
15938;SDS011;8068;51.322;9.450;2022-10-31T03:59:55;8.97;;;5.60;;
15938;SDS011;8068;51.322;9.450;2022-10-31T04:02:28;10.30;;;5.40;;
15938;SDS011;8068;51.322;9.450;2022-10-31T04:04:58;10.97;;;4.80;;
15938;SDS011;8068;51.322;9.450;2022-10-31T04:07:26;12.67;;;4.77;;
15938;SDS011;8068;51.322;9.450;2022-10-31T04:09:55;15.30;;;6.17;;
15938;SDS011;8068;51.322;9.450;2022-10-31T04:12:22;14.43;;;5.87;;
15938;SDS011;8068;51.322;9.450;2022-10-31T04:14:49;5.90;;;5.37;;
15938;SDS011;8068;51.322;9.450;2022-10-31T04:17:17;11.83;;;5.50;;
15938;SDS011;8068;51.322;9.450;2022-10-31T04:19:44;12.20;;;5.57;;
15938;SDS011;8068;51.322;9.450;2022-10-31T04:22:10;10.40;;;5.07;;
15938;SDS011;8068;51.322;9.450;2022-10-31T04:24:37;9.40;;;5.17;;
15938;SDS011;8068;51.322;9.450;2022-10-31T04:27:04;14.30;;;5.30;;
15938;SDS011;8068;51.322;9.450;2022-10-31T04:29:30;10.27;;;5.43;;
15938;SDS011;8068;51.322;9.450;2022-10-31T04:31:56;14.13;;;5.80;;
15938;SDS011;8068;51.322;9.450;2022-10-31T04:34:22;14.07;;;5.90;;
15938;SDS011;8068;51.322;9.450;2022-10-31T04:36:48;9.53;;;5.73;;
15938;SDS011;8068;51.322;9.450;2022-10-31T04:39:15;8.20;;;5.73;;
15938;SDS011;8068;51.322;9.450;2022-10-31T04:41:41;7.30;;;5.70;;
15938;SDS011;8068;51.322;9.450;2022-10-31T04:44:07;6.07;;;5.20;;
15938;SDS011;8068;51.322;9.450;2022-10-31T04:46:33;11.13;;;5.73;;
15938;SDS011;8068;51.322;9.450;2022-10-31T04:48:59;12.50;;;5.40;;
15938;SDS011;8068;51.322;9.450;2022-10-31T04:51:25;13.80;;;6.43;;
15938;SDS011;8068;51.322;9.450;2022-10-31T04:53:51;11.97;;;6.20;;
15938;SDS011;8068;51.322;9.450;2022-10-31T04:56:17;10.23;;;6.10;;
15938;SDS011;8068;51.322;9.450;2022-10-31T04:58:43;10.30;;;6.10;;
15938;SDS011;8068;51.322;9.450;2022-10-31T05:01:09;12.57;;;6.40;;
15938;SDS011;8068;51.322;9.450;2022-10-31T05:03:35;11.27;;;6.80;;
15938;SDS011;8068;51.322;9.450;2022-10-31T05:06:01;18.33;;;6.40;;
15938;SDS011;8068;51.322;9.450;2022-10-31T05:08:27;10.80;;;6.67;;
15938;SDS011;8068;51.322;9.450;2022-10-31T05:10:53;9.40;;;5.80;;
15938;SDS011;8068;51.322;9.450;2022-10-31T05:13:19;7.03;;;5.60;;
15938;SDS011;8068;51.322;9.450;2022-10-31T05:15:46;11.87;;;5.67;;
15938;SDS011;8068;51.322;9.450;2022-10-31T05:18:12;16.77;;;6.17;;
15938;SDS011;8068;51.322;9.450;2022-10-31T05:20:38;14.43;;;6.40;;
15938;SDS011;8068;51.322;9.450;2022-10-31T05:23:04;8.53;;;5.97;;
15938;SDS011;8068;51.322;9.450;2022-10-31T05:25:30;13.20;;;6.23;;
15938;SDS011;8068;51.322;9.450;2022-10-31T05:27:57;10.07;;;5.77;;
15938;SDS011;8068;51.322;9.450;2022-10-31T05:30:27;16.00;;;6.07;;
15938;SDS011;8068;51.322;9.450;2022-10-31T05:32:54;14.37;;;6.20;;
15938;SDS011;8068;51.322;9.450;2022-10-31T05:35:25;9.03;;;6.23;;
15938;SDS011;8068;51.322;9.450;2022-10-31T05:37:57;11.80;;;6.80;;
15938;SDS011;8068;51.322;9.450;2022-10-31T05:40:24;9.70;;;6.70;;
15938;SDS011;8068;51.322;9.450;2022-10-31T05:42:51;7.67;;;5.97;;
15938;SDS011;8068;51.322;9.450;2022-10-31T05:45:19;17.50;;;7.27;;
15938;SDS011;8068;51.322;9.450;2022-10-31T05:47:52;10.17;;;6.47;;
15938;SDS011;8068;51.322;9.450;2022-10-31T05:50:19;9.90;;;6.87;;
15938;SDS011;8068;51.322;9.450;2022-10-31T05:52:45;18.10;;;6.90;;
15938;SDS011;8068;51.322;9.450;2022-10-31T05:55:12;17.30;;;6.00;;
15938;SDS011;8068;51.322;9.450;2022-10-31T05:57:38;13.40;;;6.30;;
15938;SDS011;8068;51.322;9.450;2022-10-31T06:00:04;10.20;;;6.17;;
15938;SDS011;8068;51.322;9.450;2022-10-31T06:02:31;11.10;;;6.40;;
15938;SDS011;8068;51.322;9.450;2022-10-31T06:05:00;7.90;;;6.40;;
15938;SDS011;8068;51.322;9.450;2022-10-31T06:07:26;12.07;;;6.87;;
15938;SDS011;8068;51.322;9.450;2022-10-31T06:09:53;10.00;;;6.20;;
15938;SDS011;8068;51.322;9.450;2022-10-31T06:12:19;13.50;;;7.40;;
15938;SDS011;8068;51.322;9.450;2022-10-31T06:14:45;12.70;;;6.97;;
15938;SDS011;8068;51.322;9.450;2022-10-31T06:17:11;21.07;;;6.17;;
15938;SDS011;8068;51.322;9.450;2022-10-31T06:19:37;15.37;;;7.00;;
15938;SDS011;8068;51.322;9.450;2022-10-31T06:22:03;15.50;;;7.73;;
15938;SDS011;8068;51.322;9.450;2022-10-31T06:24:29;10.93;;;7.50;;
15938;SDS011;8068;51.322;9.450;2022-10-31T06:26:55;14.73;;;8.27;;
15938;SDS011;8068;51.322;9.450;2022-10-31T06:29:21;10.10;;;6.80;;
15938;SDS011;8068;51.322;9.450;2022-10-31T06:31:47;13.13;;;7.17;;
15938;SDS011;8068;51.322;9.450;2022-10-31T06:34:13;16.40;;;7.10;;
15938;SDS011;8068;51.322;9.450;2022-10-31T06:36:39;10.07;;;7.00;;
15938;SDS011;8068;51.322;9.450;2022-10-31T06:39:05;13.37;;;7.30;;
15938;SDS011;8068;51.322;9.450;2022-10-31T06:41:31;11.97;;;7.03;;
15938;SDS011;8068;51.322;9.450;2022-10-31T06:43:58;12.30;;;6.80;;
15938;SDS011;8068;51.322;9.450;2022-10-31T06:46:24;19.03;;;7.77;;
15938;SDS011;8068;51.322;9.450;2022-10-31T06:48:50;19.27;;;7.60;;
15938;SDS011;8068;51.322;9.450;2022-10-31T06:51:16;12.20;;;7.70;;
15938;SDS011;8068;51.322;9.450;2022-10-31T06:53:42;17.30;;;7.43;;
15938;SDS011;8068;51.322;9.450;2022-10-31T06:56:08;13.53;;;7.73;;
15938;SDS011;8068;51.322;9.450;2022-10-31T06:58:34;11.97;;;7.80;;
15938;SDS011;8068;51.322;9.450;2022-10-31T07:01:00;13.40;;;7.60;;
15938;SDS011;8068;51.322;9.450;2022-10-31T07:03:26;16.53;;;8.50;;
15938;SDS011;8068;51.322;9.450;2022-10-31T07:05:54;14.30;;;7.80;;
15938;SDS011;8068;51.322;9.450;2022-10-31T07:08:22;13.23;;;8.27;;
15938;SDS011;8068;51.322;9.450;2022-10-31T07:10:52;14.67;;;8.20;;
15938;SDS011;8068;51.322;9.450;2022-10-31T07:13:19;13.87;;;7.80;;
15938;SDS011;8068;51.322;9.450;2022-10-31T07:15:50;15.90;;;7.70;;
15938;SDS011;8068;51.322;9.450;2022-10-31T07:18:17;19.53;;;7.00;;
15938;SDS011;8068;51.322;9.450;2022-10-31T07:20:43;10.10;;;7.10;;
15938;SDS011;8068;51.322;9.450;2022-10-31T07:23:09;9.93;;;7.60;;
15938;SDS011;8068;51.322;9.450;2022-10-31T07:25:37;15.20;;;8.00;;
15938;SDS011;8068;51.322;9.450;2022-10-31T07:28:03;15.13;;;7.70;;
15938;SDS011;8068;51.322;9.450;2022-10-31T07:30:30;14.00;;;8.37;;
15938;SDS011;8068;51.322;9.450;2022-10-31T07:32:56;19.93;;;8.03;;
15938;SDS011;8068;51.322;9.450;2022-10-31T07:35:23;13.45;;;8.00;;
15938;SDS011;8068;51.322;9.450;2022-10-31T07:37:50;13.43;;;7.93;;
15938;SDS011;8068;51.322;9.450;2022-10-31T07:40:17;13.20;;;7.77;;
15938;SDS011;8068;51.322;9.450;2022-10-31T07:42:45;12.80;;;7.70;;
15938;SDS011;8068;51.322;9.450;2022-10-31T07:45:13;16.73;;;7.57;;
15938;SDS011;8068;51.322;9.450;2022-10-31T07:47:45;8.63;;;7.10;;
15938;SDS011;8068;51.322;9.450;2022-10-31T07:50:15;11.10;;;7.13;;
15938;SDS011;8068;51.322;9.450;2022-10-31T07:52:45;12.00;;;7.60;;
15938;SDS011;8068;51.322;9.450;2022-10-31T07:55:11;14.00;;;7.23;;
15938;SDS011;8068;51.322;9.450;2022-10-31T07:57:37;17.97;;;7.67;;
15938;SDS011;8068;51.322;9.450;2022-10-31T08:00:04;12.97;;;7.40;;
15938;SDS011;8068;51.322;9.450;2022-10-31T08:02:31;15.40;;;8.20;;
15938;SDS011;8068;51.322;9.450;2022-10-31T08:04:57;10.40;;;7.63;;
15938;SDS011;8068;51.322;9.450;2022-10-31T08:07:27;13.70;;;8.00;;
15938;SDS011;8068;51.322;9.450;2022-10-31T08:09:53;14.37;;;8.80;;
15938;SDS011;8068;51.322;9.450;2022-10-31T08:12:20;18.90;;;8.10;;
15938;SDS011;8068;51.322;9.450;2022-10-31T08:14:47;17.87;;;8.37;;
15938;SDS011;8068;51.322;9.450;2022-10-31T08:17:13;15.23;;;8.03;;
15938;SDS011;8068;51.322;9.450;2022-10-31T08:19:39;22.33;;;8.17;;
15938;SDS011;8068;51.322;9.450;2022-10-31T08:22:05;12.70;;;7.87;;
15938;SDS011;8068;51.322;9.450;2022-10-31T08:24:31;17.23;;;8.00;;
15938;SDS011;8068;51.322;9.450;2022-10-31T08:26:58;14.03;;;7.83;;
15938;SDS011;8068;51.322;9.450;2022-10-31T08:29:24;15.73;;;8.37;;
15938;SDS011;8068;51.322;9.450;2022-10-31T08:31:50;15.73;;;8.23;;
15938;SDS011;8068;51.322;9.450;2022-10-31T08:34:16;21.63;;;8.53;;
15938;SDS011;8068;51.322;9.450;2022-10-31T08:36:42;14.37;;;7.53;;
15938;SDS011;8068;51.322;9.450;2022-10-31T08:39:10;10.67;;;7.43;;
15938;SDS011;8068;51.322;9.450;2022-10-31T08:41:36;19.73;;;8.10;;
15938;SDS011;8068;51.322;9.450;2022-10-31T08:44:02;16.03;;;8.77;;
15938;SDS011;8068;51.322;9.450;2022-10-31T08:46:28;20.50;;;8.40;;
15938;SDS011;8068;51.322;9.450;2022-10-31T08:48:54;14.40;;;8.23;;
15938;SDS011;8068;51.322;9.450;2022-10-31T08:51:20;15.32;;;9.27;;
15938;SDS011;8068;51.322;9.450;2022-10-31T08:53:46;16.33;;;9.20;;
15938;SDS011;8068;51.322;9.450;2022-10-31T08:56:12;24.93;;;8.77;;
15938;SDS011;8068;51.322;9.450;2022-10-31T08:58:38;15.43;;;9.43;;
15938;SDS011;8068;51.322;9.450;2022-10-31T09:01:05;19.30;;;8.87;;
15938;SDS011;8068;51.322;9.450;2022-10-31T09:03:32;19.33;;;10.33;;
15938;SDS011;8068;51.322;9.450;2022-10-31T09:05:59;18.90;;;10.00;;
15938;SDS011;8068;51.322;9.450;2022-10-31T09:08:28;20.13;;;11.23;;
15938;SDS011;8068;51.322;9.450;2022-10-31T09:10:56;17.63;;;11.13;;
15938;SDS011;8068;51.322;9.450;2022-10-31T09:13:23;21.20;;;10.60;;
15938;SDS011;8068;51.322;9.450;2022-10-31T09:15:53;29.37;;;11.17;;
15938;SDS011;8068;51.322;9.450;2022-10-31T09:18:21;35.50;;;11.67;;
15938;SDS011;8068;51.322;9.450;2022-10-31T09:20:48;20.43;;;11.20;;
15938;SDS011;8068;51.322;9.450;2022-10-31T09:23:15;16.63;;;11.00;;
15938;SDS011;8068;51.322;9.450;2022-10-31T09:25:43;29.13;;;12.00;;
15938;SDS011;8068;51.322;9.450;2022-10-31T09:28:16;24.03;;;13.37;;
15938;SDS011;8068;51.322;9.450;2022-10-31T09:30:45;20.57;;;12.03;;
15938;SDS011;8068;51.322;9.450;2022-10-31T09:33:13;25.30;;;12.80;;
15938;SDS011;8068;51.322;9.450;2022-10-31T09:35:39;20.27;;;11.67;;
15938;SDS011;8068;51.322;9.450;2022-10-31T09:38:09;27.63;;;14.00;;
15938;SDS011;8068;51.322;9.450;2022-10-31T09:40:37;29.03;;;12.60;;
15938;SDS011;8068;51.322;9.450;2022-10-31T09:45:41;28.93;;;13.00;;
15938;SDS011;8068;51.322;9.450;2022-10-31T09:48:17;18.40;;;13.60;;
15938;SDS011;8068;51.322;9.450;2022-10-31T09:50:54;22.50;;;13.03;;
15938;SDS011;8068;51.322;9.450;2022-10-31T09:53:25;21.30;;;12.67;;
15938;SDS011;8068;51.322;9.450;2022-10-31T09:55:57;21.40;;;12.73;;
15938;SDS011;8068;51.322;9.450;2022-10-31T09:58:24;20.17;;;12.80;;
15938;SDS011;8068;51.322;9.450;2022-10-31T10:00:56;34.67;;;12.47;;
15938;SDS011;8068;51.322;9.450;2022-10-31T10:03:32;28.90;;;12.77;;
15938;SDS011;8068;51.322;9.450;2022-10-31T10:08:37;21.43;;;14.17;;
15938;SDS011;8068;51.322;9.450;2022-10-31T10:32:44;27.23;;;14.20;;
15938;SDS011;8068;51.322;9.450;2022-10-31T10:37:43;29.50;;;15.70;;
15938;SDS011;8068;51.322;9.450;2022-10-31T10:40:13;28.20;;;15.20;;
15938;SDS011;8068;51.322;9.450;2022-10-31T10:42:44;28.27;;;15.03;;
15938;SDS011;8068;51.322;9.450;2022-10-31T10:45:35;26.40;;;15.03;;
15938;SDS011;8068;51.322;9.450;2022-10-31T10:51:00;30.17;;;16.63;;
15938;SDS011;8068;51.322;9.450;2022-10-31T10:56:11;26.40;;;14.93;;
15938;SDS011;8068;51.322;9.450;2022-10-31T10:58:41;22.50;;;15.27;;
15938;SDS011;8068;51.322;9.450;2022-10-31T11:01:12;27.03;;;14.60;;
15938;SDS011;8068;51.322;9.450;2022-10-31T11:03:44;23.20;;;14.50;;
15938;SDS011;8068;51.322;9.450;2022-10-31T11:06:16;23.03;;;13.57;;
15938;SDS011;8068;51.322;9.450;2022-10-31T11:08:48;19.77;;;14.20;;
15938;SDS011;8068;51.322;9.450;2022-10-31T11:13:44;20.30;;;13.07;;
15938;SDS011;8068;51.322;9.450;2022-10-31T11:16:26;20.27;;;12.07;;
15938;SDS011;8068;51.322;9.450;2022-10-31T11:18:53;27.80;;;13.50;;
15938;SDS011;8068;51.322;9.450;2022-10-31T11:21:28;23.37;;;12.93;;
15938;SDS011;8068;51.322;9.450;2022-10-31T11:26:52;15.10;;;11.60;;
15938;SDS011;8068;51.322;9.450;2022-10-31T11:29:30;23.73;;;12.73;;
15938;SDS011;8068;51.322;9.450;2022-10-31T11:31:57;22.57;;;11.33;;
15938;SDS011;8068;51.322;9.450;2022-10-31T11:34:32;24.43;;;13.03;;
15938;SDS011;8068;51.322;9.450;2022-10-31T11:37:19;21.70;;;11.50;;
15938;SDS011;8068;51.322;9.450;2022-10-31T11:39:53;22.53;;;11.93;;
15938;SDS011;8068;51.322;9.450;2022-10-31T11:42:29;20.30;;;11.10;;
15938;SDS011;8068;51.322;9.450;2022-10-31T11:47:43;23.60;;;11.20;;
15938;SDS011;8068;51.322;9.450;2022-10-31T11:50:18;21.10;;;11.97;;
15938;SDS011;8068;51.322;9.450;2022-10-31T11:52:46;17.80;;;11.43;;
15938;SDS011;8068;51.322;9.450;2022-10-31T11:57:45;21.10;;;11.33;;
15938;SDS011;8068;51.322;9.450;2022-10-31T12:00:29;21.83;;;11.80;;
15938;SDS011;8068;51.322;9.450;2022-10-31T12:03:43;20.97;;;11.13;;
15938;SDS011;8068;51.322;9.450;2022-10-31T12:05:53;18.93;;;11.67;;
15938;SDS011;8068;51.322;9.450;2022-10-31T12:08:23;21.23;;;10.80;;
15938;SDS011;8068;51.322;9.450;2022-10-31T12:13:40;23.77;;;10.97;;
15938;SDS011;8068;51.322;9.450;2022-10-31T12:16:12;15.77;;;11.00;;
15938;SDS011;8068;51.322;9.450;2022-10-31T12:21:21;18.03;;;10.40;;
15938;SDS011;8068;51.322;9.450;2022-10-31T12:26:39;20.30;;;11.63;;
15938;SDS011;8068;51.322;9.450;2022-10-31T12:34:53;19.43;;;11.60;;
15938;SDS011;8068;51.322;9.450;2022-10-31T12:42:53;21.73;;;12.90;;
15938;SDS011;8068;51.322;9.450;2022-10-31T12:53:50;28.17;;;12.63;;
15938;SDS011;8068;51.322;9.450;2022-10-31T12:56:21;17.67;;;13.60;;
15938;SDS011;8068;51.322;9.450;2022-10-31T12:59:07;22.23;;;12.30;;
15938;SDS011;8068;51.322;9.450;2022-10-31T13:01:38;25.77;;;14.10;;
15938;SDS011;8068;51.322;9.450;2022-10-31T13:04:18;23.23;;;13.20;;
15938;SDS011;8068;51.322;9.450;2022-10-31T13:06:53;24.37;;;14.30;;
15938;SDS011;8068;51.322;9.450;2022-10-31T13:09:23;25.30;;;13.63;;
15938;SDS011;8068;51.322;9.450;2022-10-31T13:11:54;25.23;;;12.70;;
15938;SDS011;8068;51.322;9.450;2022-10-31T13:14:36;18.67;;;11.43;;
15938;SDS011;8068;51.322;9.450;2022-10-31T13:17:05;22.90;;;11.80;;
15938;SDS011;8068;51.322;9.450;2022-10-31T13:19:39;20.70;;;13.03;;
15938;SDS011;8068;51.322;9.450;2022-10-31T13:22:16;23.23;;;11.87;;
15938;SDS011;8068;51.322;9.450;2022-10-31T13:27:24;22.83;;;11.30;;
15938;SDS011;8068;51.322;9.450;2022-10-31T13:32:35;18.27;;;11.13;;
15938;SDS011;8068;51.322;9.450;2022-10-31T13:35:04;32.43;;;12.87;;
15938;SDS011;8068;51.322;9.450;2022-10-31T13:37:38;19.70;;;11.57;;
15938;SDS011;8068;51.322;9.450;2022-10-31T13:40:23;18.10;;;12.40;;
15938;SDS011;8068;51.322;9.450;2022-10-31T13:43:12;25.90;;;12.90;;
15938;SDS011;8068;51.322;9.450;2022-10-31T13:45:48;25.40;;;13.53;;
15938;SDS011;8068;51.322;9.450;2022-10-31T13:50:43;15.23;;;11.73;;
15938;SDS011;8068;51.322;9.450;2022-10-31T14:01:28;25.93;;;11.97;;
15938;SDS011;8068;51.322;9.450;2022-10-31T14:04:06;21.23;;;12.43;;
15938;SDS011;8068;51.322;9.450;2022-10-31T14:09:34;18.93;;;12.40;;
15938;SDS011;8068;51.322;9.450;2022-10-31T14:12:13;21.03;;;12.73;;
15938;SDS011;8068;51.322;9.450;2022-10-31T14:14:49;21.53;;;12.03;;
15938;SDS011;8068;51.322;9.450;2022-10-31T14:17:20;24.03;;;12.70;;
15938;SDS011;8068;51.322;9.450;2022-10-31T14:20:02;23.67;;;13.20;;
15938;SDS011;8068;51.322;9.450;2022-10-31T14:22:49;32.93;;;13.07;;
15938;SDS011;8068;51.322;9.450;2022-10-31T14:25:29;19.60;;;12.47;;
15938;SDS011;8068;51.322;9.450;2022-10-31T14:27:57;21.07;;;12.10;;
15938;SDS011;8068;51.322;9.450;2022-10-31T14:30:24;24.13;;;12.33;;
15938;SDS011;8068;51.322;9.450;2022-10-31T14:32:52;20.50;;;13.37;;
15938;SDS011;8068;51.322;9.450;2022-10-31T14:35:25;21.00;;;13.30;;
15938;SDS011;8068;51.322;9.450;2022-10-31T14:40:52;24.07;;;14.47;;
15938;SDS011;8068;51.322;9.450;2022-10-31T14:50:02;23.73;;;12.63;;
15938;SDS011;8068;51.322;9.450;2022-10-31T14:52:15;29.13;;;12.50;;
15938;SDS011;8068;51.322;9.450;2022-10-31T14:54:45;18.87;;;11.73;;
15938;SDS011;8068;51.322;9.450;2022-10-31T14:59:47;19.90;;;12.90;;
15938;SDS011;8068;51.322;9.450;2022-10-31T15:02:21;23.20;;;12.53;;
15938;SDS011;8068;51.322;9.450;2022-10-31T15:04:51;16.20;;;11.83;;
15938;SDS011;8068;51.322;9.450;2022-10-31T15:07:20;28.23;;;12.67;;
15938;SDS011;8068;51.322;9.450;2022-10-31T15:12:30;19.23;;;12.30;;
15938;SDS011;8068;51.322;9.450;2022-10-31T15:15:10;27.40;;;13.00;;
15938;SDS011;8068;51.322;9.450;2022-10-31T15:17:41;23.70;;;13.30;;
15938;SDS011;8068;51.322;9.450;2022-10-31T15:20:10;19.57;;;12.10;;
15938;SDS011;8068;51.322;9.450;2022-10-31T15:22:37;25.60;;;13.37;;
15938;SDS011;8068;51.322;9.450;2022-10-31T15:25:03;23.10;;;12.97;;
15938;SDS011;8068;51.322;9.450;2022-10-31T15:27:31;26.30;;;13.90;;
15938;SDS011;8068;51.322;9.450;2022-10-31T15:29:59;22.47;;;13.60;;
15938;SDS011;8068;51.322;9.450;2022-10-31T15:32:26;20.13;;;12.70;;
15938;SDS011;8068;51.322;9.450;2022-10-31T15:34:54;19.57;;;12.47;;
15938;SDS011;8068;51.322;9.450;2022-10-31T15:37:22;22.83;;;12.90;;
15938;SDS011;8068;51.322;9.450;2022-10-31T15:39:51;29.60;;;12.30;;
15938;SDS011;8068;51.322;9.450;2022-10-31T15:45:30;17.53;;;12.43;;
15938;SDS011;8068;51.322;9.450;2022-10-31T15:47:37;20.50;;;12.33;;
15938;SDS011;8068;51.322;9.450;2022-10-31T15:50:04;22.00;;;13.63;;
15938;SDS011;8068;51.322;9.450;2022-10-31T15:52:39;24.93;;;13.83;;
15938;SDS011;8068;51.322;9.450;2022-10-31T15:55:20;24.73;;;12.33;;
15938;SDS011;8068;51.322;9.450;2022-10-31T15:57:48;16.50;;;12.30;;
15938;SDS011;8068;51.322;9.450;2022-10-31T16:00:23;18.67;;;11.83;;
15938;SDS011;8068;51.322;9.450;2022-10-31T16:03:02;18.20;;;12.03;;
15938;SDS011;8068;51.322;9.450;2022-10-31T16:05:45;20.90;;;12.20;;
15938;SDS011;8068;51.322;9.450;2022-10-31T16:11:00;22.30;;;11.70;;
15938;SDS011;8068;51.322;9.450;2022-10-31T16:13:40;28.43;;;12.20;;
15938;SDS011;8068;51.322;9.450;2022-10-31T16:16:28;20.23;;;11.97;;
15938;SDS011;8068;51.322;9.450;2022-10-31T16:19:02;19.37;;;10.60;;
15938;SDS011;8068;51.322;9.450;2022-10-31T16:21:38;18.90;;;11.70;;
15938;SDS011;8068;51.322;9.450;2022-10-31T16:27:07;27.20;;;13.43;;
15938;SDS011;8068;51.322;9.450;2022-10-31T16:29:45;18.27;;;12.60;;
15938;SDS011;8068;51.322;9.450;2022-10-31T16:37:38;21.30;;;12.67;;
15938;SDS011;8068;51.322;9.450;2022-10-31T16:40:05;20.03;;;14.20;;
15938;SDS011;8068;51.322;9.450;2022-10-31T16:42:32;26.30;;;13.40;;
15938;SDS011;8068;51.322;9.450;2022-10-31T16:44:58;25.07;;;13.70;;
15938;SDS011;8068;51.322;9.450;2022-10-31T16:47:25;24.47;;;11.80;;
15938;SDS011;8068;51.322;9.450;2022-10-31T16:49:54;17.37;;;10.70;;
15938;SDS011;8068;51.322;9.450;2022-10-31T16:52:20;24.00;;;11.73;;
15938;SDS011;8068;51.322;9.450;2022-10-31T16:54:46;23.83;;;13.57;;
15938;SDS011;8068;51.322;9.450;2022-10-31T16:57:16;21.53;;;12.30;;
15938;SDS011;8068;51.322;9.450;2022-10-31T16:59:46;27.77;;;13.03;;
15938;SDS011;8068;51.322;9.450;2022-10-31T17:02:15;23.70;;;13.10;;
15938;SDS011;8068;51.322;9.450;2022-10-31T17:04:41;19.00;;;11.90;;
15938;SDS011;8068;51.322;9.450;2022-10-31T17:07:07;21.07;;;11.40;;
15938;SDS011;8068;51.322;9.450;2022-10-31T17:09:34;23.30;;;12.30;;
15938;SDS011;8068;51.322;9.450;2022-10-31T17:12:00;17.80;;;11.30;;
15938;SDS011;8068;51.322;9.450;2022-10-31T17:14:26;27.30;;;11.00;;
15938;SDS011;8068;51.322;9.450;2022-10-31T17:16:52;18.10;;;11.50;;
15938;SDS011;8068;51.322;9.450;2022-10-31T17:19:18;21.37;;;11.57;;
15938;SDS011;8068;51.322;9.450;2022-10-31T17:21:44;41.20;;;18.90;;
15938;SDS011;8068;51.322;9.450;2022-10-31T17:24:14;31.07;;;19.80;;
15938;SDS011;8068;51.322;9.450;2022-10-31T17:26:40;28.80;;;18.10;;
15938;SDS011;8068;51.322;9.450;2022-10-31T17:29:06;37.50;;;14.87;;
15938;SDS011;8068;51.322;9.450;2022-10-31T17:31:33;20.23;;;12.17;;
15938;SDS011;8068;51.322;9.450;2022-10-31T17:34:03;18.07;;;11.47;;